LO459 / SP-LDF 7700 Squawk Report (5th of December, 2022)

Aircraft E170 Reg No. SP-LDF Age N/A
Model Emb-170 Jet engines 2 First flight 06-04
Registered 29-06-04 Rollout 06-04 Delivered 30-06-04
Construction No. 17000035 Line No. N/A Series 100LR
ADSHEX 489786 Airline name LOT Polish Airlines Owner N/A
Airfield based Warsaw-Chopin~Mazowieckie~SP First tracked N/A

Flight history for SP-LDF

Time Lat Lon Altitude Heading Speed Vertical Rate
2022-12-05 21:03:00 GMT 55.608856 12.648239 0 168 0 0
2022-12-05 21:02:51 GMT 55.608849 12.648225 0 168 0 0
2022-12-05 21:02:40 GMT 55.609131 12.648135 0 168 9 0
2022-12-05 21:02:30 GMT 55.609592 12.647989 0 168 13 0
2022-12-05 21:02:20 GMT 55.610195 12.647885 0 177 10 0
2022-12-05 21:02:10 GMT 55.610626 12.647817 0 168 11 0
2022-12-05 21:02:00 GMT 55.611279 12.647603 0 168 19 0
2022-12-05 21:01:50 GMT 55.612232 12.647302 0 168 24 0
2022-12-05 21:01:40 GMT 55.613281 12.646959 0 168 23 0
2022-12-05 21:01:29 GMT 55.614235 12.646637 0 168 20 0
2022-12-05 21:01:19 GMT 55.615154 12.646337 0 168 21 0
2022-12-05 21:01:09 GMT 55.616039 12.646058 0 168 18 0
2022-12-05 21:00:59 GMT 55.616821 12.645843 0 196 15 0
2022-12-05 21:00:48 GMT 55.617622 12.646658 0 213 22 0
2022-12-05 21:00:39 GMT 55.618378 12.647532 0 213 22 0
2022-12-05 21:00:29 GMT 55.619190 12.648468 0 213 21 0
2022-12-05 21:00:19 GMT 55.619923 12.649321 0 205 14 0
2022-12-05 21:00:08 GMT 55.620487 12.649040 0 120 16 0
2022-12-05 20:59:59 GMT 55.620869 12.647989 0 126 15 0
2022-12-05 20:59:48 GMT 55.621170 12.647053 0 87 10 0
2022-12-05 20:59:39 GMT 55.620975 12.646450 0 33 13 0
2022-12-05 20:59:29 GMT 55.620335 12.645693 0 33 18 0
2022-12-05 20:59:18 GMT 55.619541 12.645071 0 8 17 0
2022-12-05 20:59:08 GMT 55.618881 12.645113 0 348 14 0
2022-12-05 20:58:58 GMT 55.618309 12.645305 0 348 11 0
2022-12-05 20:58:47 GMT 55.617897 12.645451 0 348 6 0
2022-12-05 20:58:28 GMT 55.616993 12.645736 0 0 11 0
2022-12-05 20:58:25 GMT 55.616856 12.645721 0 19 10 0
2022-12-05 20:58:14 GMT 55.616547 12.645160 0 81 11 0
2022-12-05 20:58:02 GMT 55.616478 12.643516 0 84 20 0
2022-12-05 20:57:58 GMT 55.616447 12.642732 0 84 19 0
2022-12-05 20:57:47 GMT 55.616398 12.641248 0 75 15 0
2022-12-05 20:57:31 GMT 55.615528 12.639620 0 39 23 0
2022-12-05 20:57:26 GMT 55.615131 12.638998 0 42 26 0
2022-12-05 20:57:17 GMT 55.614201 12.637560 0 42 30 0
2022-12-05 20:57:07 GMT 55.613171 12.635963 0 42 31 0
2022-12-05 20:56:57 GMT 55.612061 12.634257 0 39 35 0
2022-12-05 20:56:46 GMT 55.610790 12.632282 0 42 38 0
2022-12-05 20:56:36 GMT 55.609417 12.630157 0 42 40 0
2022-12-05 20:56:26 GMT 55.608101 12.628118 0 42 39 0
2022-12-05 20:56:16 GMT 55.606728 12.625996 0 42 38 0
2022-12-05 20:56:06 GMT 55.605438 12.623999 0 42 36 0
2022-12-05 20:55:55 GMT 55.604145 12.621982 0 42 33 0
2022-12-05 20:55:45 GMT 55.603088 12.620373 0 39 31 0
2022-12-05 20:55:36 GMT 55.602051 12.618763 0 42 28 0
2022-12-05 20:55:25 GMT 55.601109 12.617278 0 42 27 0
2022-12-05 20:55:15 GMT 55.600281 12.616017 0 42 19 0
2022-12-05 20:55:06 GMT 55.599827 12.615309 0 42 7 0
2022-12-05 20:54:55 GMT 55.599735 12.615180 0 42 0 0
2022-12-05 20:54:45 GMT 55.599735 12.615176 0 42 0 0
2022-12-05 20:54:35 GMT 55.599503 12.614794 -150 42 31 0
2022-12-05 20:54:25 GMT 55.597340 12.611532 -150 41 91 -64
2022-12-05 20:54:14 GMT 55.593155 12.604980 -125 41 117 -512
2022-12-05 20:54:05 GMT 55.589470 12.599344 -25 41 116 -640
2022-12-05 20:54:02 GMT 55.588623 12.597989 0 41 116 -640
2022-12-05 20:53:55 GMT 55.585373 12.592912 100 40 116 -704
2022-12-05 20:53:52 GMT 55.584412 12.591497 125 41 116 -640
2022-12-05 20:53:43 GMT 55.580112 12.584839 225 41 115 -704
2022-12-05 20:53:32 GMT 55.576389 12.579088 325 41 114 -576
2022-12-05 20:53:22 GMT 55.569168 12.568026 500 42 113 -768
2022-12-05 20:53:14 GMT 55.569168 12.568026 500 42 113 -768
2022-12-05 20:53:10 GMT 55.567730 12.565699 550 41 113 -640
2022-12-05 20:53:02 GMT 55.564426 12.560549 625 41 114 -640
2022-12-05 20:52:52 GMT 55.560333 12.554294 750 41 115 -640
2022-12-05 20:52:49 GMT 55.559052 12.552296 775 40 116 -640
2022-12-05 20:52:44 GMT 55.557083 12.549300 825 41 116 -704
2022-12-05 20:52:41 GMT 55.556046 12.547674 850 41 116 -704
2022-12-05 20:52:37 GMT 55.554016 12.544556 900 41 118 -704
2022-12-05 20:52:34 GMT 55.553192 12.543307 950 41 118 -704
2022-12-05 20:52:31 GMT 55.551762 12.541065 975 41 119 -640
2022-12-05 20:52:27 GMT 55.549850 12.538147 1,025 41 119 -640
2022-12-05 20:52:24 GMT 55.549026 12.536815 1,050 40 120 -704
2022-12-05 20:52:21 GMT 55.547699 12.534818 1,100 41 122 -704
2022-12-05 20:52:17 GMT 55.545639 12.531655 1,125 41 123 -704
2022-12-05 20:52:14 GMT 55.544361 12.529650 1,175 41 126 -704
2022-12-05 20:52:10 GMT 55.542847 12.527327 1,200 41 128 -704
2022-12-05 20:52:07 GMT 55.541245 12.524913 1,250 41 131 -640
2022-12-05 20:52:04 GMT 55.540146 12.523166 1,275 41 133 -576
2022-12-05 20:52:01 GMT 55.536865 12.518063 1,325 41 136 -64
2022-12-05 20:51:57 GMT 55.536865 12.518063 1,325 41 134 -128
2022-12-05 20:51:53 GMT 55.535191 12.515488 1,325 41 136 -64
2022-12-05 20:51:50 GMT 55.533554 12.512928 1,350 41 147 -384
2022-12-05 20:51:44 GMT 55.530441 12.508018 1,350 41 145 -320
2022-12-05 20:51:41 GMT 55.529140 12.505960 1,350 41 148 -384
2022-12-05 20:51:37 GMT 55.526718 12.502098 1,375 42 149 -192
2022-12-05 20:51:34 GMT 55.525543 12.500277 1,375 42 149 -256
2022-12-05 20:51:31 GMT 55.523830 12.497463 1,400 42 149 -320
2022-12-05 20:51:26 GMT 55.521515 12.493702 1,425 43 149 -384
2022-12-05 20:51:22 GMT 55.519363 12.490168 1,475 42 150 -384
2022-12-05 20:51:18 GMT 55.517735 12.487507 1,475 42 150 -384
2022-12-05 20:51:15 GMT 55.515919 12.484589 1,500 42 150 -448
2022-12-05 20:51:12 GMT 55.514374 12.482133 1,675 10 171 -512
2022-12-05 20:51:07 GMT 55.511681 12.478151 1,550 39 151 -448
2022-12-05 20:51:03 GMT 55.509354 12.475147 1,600 31 156 -384
2022-12-05 20:51:00 GMT 55.507507 12.473145 1,600 26 160 -448
2022-12-05 20:50:56 GMT 55.504578 12.470648 1,650 21 163 -512
2022-12-05 20:50:53 GMT 55.503113 12.469815 1,675 14 168 -512
2022-12-05 20:50:50 GMT 55.500412 12.468567 1,700 10 171 -512
2022-12-05 20:50:45 GMT 55.496227 12.467165 1,750 10 174 -448
2022-12-05 20:50:42 GMT 55.494598 12.466650 1,750 10 176 -384
2022-12-05 20:50:39 GMT 55.491852 12.465737 1,775 10 182 -512
2022-12-05 20:50:35 GMT 55.488358 12.464590 1,800 9 184 -576
2022-12-05 20:50:32 GMT 55.485378 12.463732 1,850 8 186 -576
2022-12-05 20:50:29 GMT 55.481094 12.462824 1,850 328 193 -192
2022-12-05 20:50:23 GMT 55.478119 12.462530 1,825 359 190 384
2022-12-05 20:50:20 GMT 55.474533 12.463131 1,825 350 190 256
2022-12-05 20:50:14 GMT 55.470337 12.465571 1,825 338 191 -64
2022-12-05 20:50:11 GMT 55.468460 12.467235 1,825 331 193 -64
2022-12-05 20:50:08 GMT 55.465668 12.470065 1,825 330 193 0
2022-12-05 20:50:05 GMT 55.463406 12.472401 1,825 329 192 0
2022-12-05 20:50:02 GMT 55.461365 12.474559 1,825 328 192 -128
2022-12-05 20:49:59 GMT 55.458939 12.477223 1,825 327 192 -192
2022-12-05 20:49:56 GMT 55.456558 12.479969 1,850 324 192 -64
2022-12-05 20:49:53 GMT 55.454144 12.483215 1,825 321 193 192
2022-12-05 20:49:50 GMT 55.452793 12.485189 1,825 314 193 192
2022-12-05 20:49:47 GMT 55.450603 12.489395 1,825 300 194 -64
2022-12-05 20:49:44 GMT 55.449440 12.492399 1,825 300 194 -64
2022-12-05 20:49:41 GMT 55.448181 12.496782 1,825 293 195 -64
2022-12-05 20:49:38 GMT 55.446880 12.502356 1,825 292 194 64
2022-12-05 20:49:34 GMT 55.445858 12.507076 1,825 292 194 64
2022-12-05 20:49:30 GMT 55.444553 12.512999 1,825 292 194 64
2022-12-05 20:49:27 GMT 55.443390 12.518338 1,825 292 200 -64
2022-12-05 20:49:24 GMT 55.442364 12.523082 1,825 291 199 -64
2022-12-05 20:49:20 GMT 55.441223 12.528292 1,850 291 204 -320
2022-12-05 20:49:17 GMT 55.440083 12.533569 1,850 292 205 -448
2022-12-05 20:49:14 GMT 55.439209 12.537501 1,875 291 206 -576
2022-12-05 20:49:10 GMT 55.437897 12.543557 1,925 291 209 -512
2022-12-05 20:49:07 GMT 55.436691 12.548972 1,950 291 212 -576
2022-12-05 20:49:03 GMT 55.435520 12.554460 1,975 291 213 -576
2022-12-05 20:49:00 GMT 55.434406 12.559620 2,000 291 218 -576
2022-12-05 20:48:57 GMT 55.433102 12.565530 2,050 291 217 -512
2022-12-05 20:48:54 GMT 55.432022 12.570460 2,075 291 219 -640
2022-12-05 20:48:50 GMT 55.430820 12.576183 2,100 291 220 -640
2022-12-05 20:48:47 GMT 55.429470 12.582176 2,125 291 223 -128
2022-12-05 20:48:43 GMT 55.428165 12.588251 2,125 291 227 -384
2022-12-05 20:48:40 GMT 55.427097 12.593245 2,150 291 232 -512
2022-12-05 20:48:36 GMT 55.425613 12.599945 2,200 291 237 -960
2022-12-05 20:48:33 GMT 55.424377 12.605761 2,275 291 244 -1088
2022-12-05 20:48:30 GMT 55.422913 12.612385 2,300 291 248 -1088
2022-12-05 20:48:26 GMT 55.421265 12.619979 2,375 291 252 -1088
2022-12-05 20:48:23 GMT 55.420395 12.624040 2,400 291 257 -1088
2022-12-05 20:48:20 GMT 55.418995 12.630449 2,450 291 263 -1088
2022-12-05 20:48:17 GMT 55.417831 12.635651 2,500 292 267 -1024
2022-12-05 20:48:14 GMT 55.415726 12.645344 2,575 292 274 -1024
2022-12-05 20:48:10 GMT 55.414444 12.651322 2,625 291 282 -1792
2022-12-05 20:48:06 GMT 55.412060 12.661993 2,800 292 286 -2304
2022-12-05 20:48:03 GMT 55.411129 12.666321 2,875 291 288 -2688
2022-12-05 20:48:00 GMT 55.409405 12.674228 3,050 291 290 -3008
2022-12-05 20:47:57 GMT 55.408054 12.680387 3,200 291 291 -2816
2022-12-05 20:47:53 GMT 55.406147 12.689209 3,375 292 290 -2432
2022-12-05 20:47:50 GMT 55.404694 12.695833 3,475 292 290 -2240
2022-12-05 20:47:45 GMT 55.401398 12.710697 3,700 292 291 -1984
2022-12-05 20:47:42 GMT 55.400841 12.713096 3,725 292 292 -1920
2022-12-05 20:47:39 GMT 55.399567 12.718856 3,825 292 293 -1856
2022-12-05 20:47:36 GMT 55.396324 12.733487 3,950 292 300 -2240
2022-12-05 20:47:30 GMT 55.394852 12.740263 4,150 292 296 -2432
2022-12-05 20:47:27 GMT 55.393433 12.746564 4,275 292 297 -2560
2022-12-05 20:47:19 GMT 55.389679 12.763771 4,600 292 299 -2304
2022-12-05 20:47:16 GMT 55.387760 12.772356 4,750 292 300 -2368
2022-12-05 20:47:10 GMT 55.384407 12.787670 5,000 292 300 -2368
2022-12-05 20:47:05 GMT 55.382675 12.795518 5,150 292 301 -2048
2022-12-05 20:46:59 GMT 55.379471 12.810059 5,375 292 301 -2048
2022-12-05 20:46:55 GMT 55.377609 12.818631 5,475 292 302 -2048
2022-12-05 20:46:52 GMT 55.375935 12.826122 5,650 292 303 -2176
2022-12-05 20:46:49 GMT 55.374538 12.832364 5,700 292 303 -2176
2022-12-05 20:46:46 GMT 55.373016 12.839382 5,950 292 304 -2304
2022-12-05 20:46:42 GMT 55.370956 12.848592 6,025 292 304 -2304
2022-12-05 20:46:39 GMT 55.369308 12.856023 6,075 292 304 -2304
2022-12-05 20:46:35 GMT 55.367294 12.865233 6,250 292 305 -2368
2022-12-05 20:46:32 GMT 55.365742 12.872148 6,350 292 305 -2368
2022-12-05 20:46:29 GMT 55.364113 12.879555 6,475 292 305 -2304
2022-12-05 20:46:25 GMT 55.362480 12.886796 6,750 292 308 -2112
2022-12-05 20:46:19 GMT 55.358944 12.902610 6,825 292 308 -2048
2022-12-05 20:46:16 GMT 55.357452 12.909268 6,925 292 309 -2048
2022-12-05 20:46:12 GMT 55.355301 12.919033 7,075 292 310 -2176
2022-12-05 20:46:08 GMT 55.353497 12.926996 7,200 292 311 -2240
2022-12-05 20:46:05 GMT 55.351959 12.934059 7,375 292 314 -2240
2022-12-05 20:45:59 GMT 55.348099 12.951549 7,600 292 312 -2304
2022-12-05 20:45:55 GMT 55.345768 12.961870 7,750 292 313 -2176
2022-12-05 20:45:48 GMT 55.342884 12.975020 8,050 292 314 -2240
2022-12-05 20:45:44 GMT 55.340973 12.983509 8,100 292 314 -2240
2022-12-05 20:45:38 GMT 55.337528 12.998907 8,350 292 315 -2176
2022-12-05 20:45:34 GMT 55.334736 13.011308 8,525 292 317 -2176
2022-12-05 20:45:28 GMT 55.332092 13.023323 8,700 292 318 -2304
2022-12-05 20:45:23 GMT 55.327744 13.042629 9,025 292 319 -2496
2022-12-05 20:45:18 GMT 55.326775 13.046930 9,100 292 319 -2496
2022-12-05 20:45:14 GMT 55.324310 13.058059 9,300 292 320 -2496
2022-12-05 20:45:10 GMT 55.321701 13.069611 9,475 292 320 -2432
2022-12-05 20:45:07 GMT 55.321289 13.071549 9,475 292 320 -2432
2022-12-05 20:45:03 GMT 55.319000 13.081637 9,825 292 321 -2240
2022-12-05 20:44:57 GMT 55.315659 13.096673 10,100 292 322 -2112
2022-12-05 20:44:53 GMT 55.313507 13.106366 10,075 292 322 -2112
2022-12-05 20:44:48 GMT 55.310211 13.120907 10,300 292 324 -2048
2022-12-05 20:44:45 GMT 55.308342 13.129245 10,400 292 325 -1984
2022-12-05 20:44:42 GMT 55.307602 13.132701 10,450 292 325 -1984
2022-12-05 20:44:37 GMT 55.304489 13.146434 10,675 292 328 -1920
2022-12-05 20:44:33 GMT 55.302383 13.155878 10,750 292 329 -1792
2022-12-05 20:44:27 GMT 55.298950 13.171153 10,925 292 334 -1216
2022-12-05 20:44:24 GMT 55.297215 13.178850 10,975 292 338 -896
2022-12-05 20:44:21 GMT 55.295471 13.186583 11,025 292 342 -832
2022-12-05 20:44:17 GMT 55.293411 13.195792 11,050 292 345 -896
2022-12-05 20:44:14 GMT 55.288422 13.217764 11,200 292 349 -1600
2022-12-05 20:44:11 GMT 55.288422 13.217764 11,250 292 350 -2368
2022-12-05 20:44:07 GMT 55.287113 13.223627 11,350 292 351 -2880
2022-12-05 20:44:03 GMT 55.284851 13.233678 11,550 292 350 -3328
2022-12-05 20:43:58 GMT 55.281898 13.246848 12,050 292 350 -3200
2022-12-05 20:43:55 GMT 55.280224 13.254173 12,050 292 350 -2944
2022-12-05 20:43:52 GMT 55.278828 13.260581 12,100 292 350 -2944
2022-12-05 20:43:47 GMT 55.275242 13.276395 12,375 292 352 -2496
2022-12-05 20:43:42 GMT 55.272591 13.288047 12,525 292 353 -2432
2022-12-05 20:43:37 GMT 55.269104 13.303555 12,800 292 356 -2944
2022-12-05 20:43:32 GMT 55.266403 13.315430 12,950 292 356 -3072
2022-12-05 20:43:29 GMT 55.264351 13.324502 13,250 292 355 -3136
2022-12-05 20:43:26 GMT 55.260132 13.343138 13,475 292 356 -3136
2022-12-05 20:43:22 GMT 55.260132 13.343138 14,000 292 357 -3008
2022-12-05 20:43:19 GMT 55.258667 13.349681 13,775 292 357 -3008
2022-12-05 20:43:16 GMT 55.256577 13.358792 13,850 292 357 -3008
2022-12-05 20:43:11 GMT 55.253540 13.372219 14,100 292 359 -2624
2022-12-05 20:43:07 GMT 55.245209 13.408894 14,375 292 358 -3008
2022-12-05 20:43:01 GMT 55.245209 13.408894 14,600 292 359 -2624
2022-12-05 20:42:56 GMT 55.244331 13.412642 14,775 292 361 -2112
2022-12-05 20:42:52 GMT 55.241913 13.423462 14,925 292 363 -1920
2022-12-05 20:42:49 GMT 55.240143 13.431119 15,000 292 363 -1920
2022-12-05 20:42:45 GMT 55.237793 13.441369 15,125 292 363 -1984
2022-12-05 20:42:41 GMT 55.235046 13.453486 15,225 292 363 -1984
2022-12-05 20:42:37 GMT 55.232529 13.464472 15,400 292 364 -1920
2022-12-05 20:42:32 GMT 55.229050 13.479659 15,600 292 375 -1920
2022-12-05 20:42:27 GMT 55.226410 13.491461 15,775 292 368 -1984
2022-12-05 20:42:23 GMT 55.223618 13.503612 15,875 292 370 -1984
2022-12-05 20:42:15 GMT 55.218933 13.524170 16,100 292 372 -1984
2022-12-05 20:42:11 GMT 55.216141 13.536368 16,575 292 375 -1920
2022-12-05 20:42:06 GMT 55.213303 13.548808 16,450 292 375 -2048
2022-12-05 20:42:03 GMT 55.210968 13.558906 16,525 292 375 -2048
2022-12-05 20:42:00 GMT 55.209278 13.566284 16,600 292 376 -1920
2022-12-05 20:41:57 GMT 55.206848 13.576920 16,725 292 376 -1920
2022-12-05 20:41:54 GMT 55.202957 13.593885 16,875 292 383 -2048
2022-12-05 20:41:50 GMT 55.202957 13.593885 17,000 292 383 -2048
2022-12-05 20:41:47 GMT 55.200527 13.604570 17,050 292 379 -1856
2022-12-05 20:41:44 GMT 55.199177 13.610313 17,125 292 379 -1856
2022-12-05 20:41:41 GMT 55.196686 13.621108 17,500 292 381 -1984
2022-12-05 20:41:34 GMT 55.192474 13.639365 17,475 292 381 -2048
2022-12-05 20:41:30 GMT 55.188538 13.656410 17,675 292 382 -2240
2022-12-05 20:41:25 GMT 55.185768 13.668490 17,800 292 383 -2048
2022-12-05 20:41:20 GMT 55.182045 13.684637 18,100 292 385 -2048
2022-12-05 20:41:14 GMT 55.179157 13.697371 18,150 292 385 -2048
2022-12-05 20:41:10 GMT 55.176132 13.710372 18,325 292 391 -2112
2022-12-05 20:41:04 GMT 55.172501 13.726169 18,475 292 388 -2048
2022-12-05 20:41:00 GMT 55.169632 13.738484 18,625 293 389 -2048
2022-12-05 20:40:55 GMT 55.166702 13.751167 18,775 292 391 -2112
2022-12-05 20:40:52 GMT 55.163727 13.764092 18,925 292 392 -2048
2022-12-05 20:40:49 GMT 55.162399 13.769908 19,000 292 392 -2112
2022-12-05 20:40:44 GMT 55.158722 13.785844 19,175 293 394 -1984
2022-12-05 20:40:39 GMT 55.155258 13.800767 19,350 293 396 -2176
2022-12-05 20:40:34 GMT 55.151833 13.815641 19,850 293 399 -2048
2022-12-05 20:40:29 GMT 55.148621 13.829364 19,700 293 399 -2048
2022-12-05 20:40:26 GMT 55.145733 13.841858 19,850 293 400 -2176
2022-12-05 20:40:21 GMT 55.142487 13.855699 20,000 293 400 -2112
2022-12-05 20:40:18 GMT 55.140987 13.862249 20,075 293 400 -2048
2022-12-05 20:40:14 GMT 55.137543 13.877025 20,250 293 400 -2112
2022-12-05 20:40:09 GMT 55.134888 13.888383 20,400 293 401 -2112
2022-12-05 20:40:05 GMT 55.128464 13.916182 20,600 293 402 -2112
2022-12-05 20:40:01 GMT 55.128464 13.916182 20,725 293 402 -2112
2022-12-05 20:39:58 GMT 55.127068 13.922175 20,925 293 402 -2176
2022-12-05 20:39:53 GMT 55.123535 13.937207 20,975 293 403 -2112
2022-12-05 20:39:50 GMT 55.121433 13.946228 21,100 293 405 -2112
2022-12-05 20:39:47 GMT 55.119324 13.955303 21,150 293 405 -2176
2022-12-05 20:39:43 GMT 55.116211 13.968632 21,325 293 405 -2176
2022-12-05 20:39:39 GMT 55.113522 13.980103 21,475 293 407 -2176
2022-12-05 20:39:35 GMT 55.110809 13.991654 21,525 293 414 -2176
2022-12-05 20:39:32 GMT 55.108681 14.000827 21,725 293 409 -2176
2022-12-05 20:39:29 GMT 55.106232 14.011204 21,850 293 409 -2176
2022-12-05 20:39:26 GMT 55.104397 14.019137 21,925 293 410 -2176
2022-12-05 20:39:22 GMT 55.101604 14.031039 22,075 293 411 -2176
2022-12-05 20:39:17 GMT 55.097626 14.047959 22,275 293 412 -2240
2022-12-05 20:39:14 GMT 55.095737 14.055925 22,375 293 413 -2240
2022-12-05 20:39:10 GMT 55.092133 14.071386 22,575 293 415 -2176
2022-12-05 20:39:07 GMT 55.089966 14.080644 22,650 293 415 -2176
2022-12-05 20:39:02 GMT 55.087032 14.093045 23,100 293 416 -2176
2022-12-05 20:38:59 GMT 55.084579 14.103537 23,050 293 418 -2240
2022-12-05 20:38:56 GMT 55.082424 14.112854 23,050 293 417 -2240
2022-12-05 20:38:52 GMT 55.079815 14.123840 23,250 293 418 -2240
2022-12-05 20:38:49 GMT 55.077026 14.135769 23,350 293 418 -2240
2022-12-05 20:38:46 GMT 55.074371 14.147159 23,350 293 418 -2240
2022-12-05 20:38:42 GMT 55.072460 14.155218 23,625 293 418 -2240
2022-12-05 20:38:38 GMT 55.069061 14.169536 23,700 293 418 -2240
2022-12-05 20:38:35 GMT 55.064781 14.187594 23,825 293 419 -2240
2022-12-05 20:38:32 GMT 55.064781 14.187594 23,975 293 419 -2240
2022-12-05 20:38:28 GMT 55.061783 14.200395 24,225 293 420 -2240
2022-12-05 20:38:24 GMT 55.058868 14.212563 24,225 293 420 -2240
2022-12-05 20:38:20 GMT 55.056496 14.222634 24,325 293 421 -2304
2022-12-05 20:38:17 GMT 55.053841 14.233870 24,900 293 425 -2304
2022-12-05 20:38:13 GMT 55.051025 14.245794 24,600 293 422 -2240
2022-12-05 20:38:10 GMT 55.048767 14.255260 24,725 293 423 -2304
2022-12-05 20:38:07 GMT 55.046265 14.265989 24,900 293 425 -2304
2022-12-05 20:38:04 GMT 55.044018 14.275485 24,975 293 426 -2240
2022-12-05 20:38:00 GMT 55.041363 14.286555 25,100 293 428 -2304
2022-12-05 20:37:57 GMT 55.039398 14.294829 25,425 293 429 -2304
2022-12-05 20:37:53 GMT 55.036152 14.308527 25,425 293 430 -2304
2022-12-05 20:37:50 GMT 55.033730 14.318764 25,525 293 442 -2368
2022-12-05 20:37:47 GMT 55.030884 14.330776 25,600 293 434 -2304
2022-12-05 20:37:41 GMT 55.026855 14.347741 26,200 293 442 -2368
2022-12-05 20:37:37 GMT 55.023468 14.362039 26,000 293 437 -2304
2022-12-05 20:37:33 GMT 55.020676 14.373752 26,175 293 439 -2304
2022-12-05 20:37:30 GMT 55.018204 14.384173 26,250 293 439 -2304
2022-12-05 20:37:27 GMT 55.015343 14.396251 26,600 293 440 -2368
2022-12-05 20:37:23 GMT 55.012939 14.406388 26,600 293 440 -2368
2022-12-05 20:37:19 GMT 55.009872 14.419152 26,650 293 441 -2368
2022-12-05 20:37:16 GMT 55.007473 14.429294 26,750 293 441 -2368
2022-12-05 20:37:12 GMT 55.003426 14.446272 26,975 293 442 -2368
2022-12-05 20:37:09 GMT 55.001999 14.452192 27,175 293 442 -2368
2022-12-05 20:37:06 GMT 54.999699 14.461753 27,175 293 442 -2368
2022-12-05 20:37:03 GMT 54.996964 14.473195 27,300 293 443 -2368
2022-12-05 20:37:00 GMT 54.995087 14.481111 27,400 293 443 -2368
2022-12-05 20:36:57 GMT 54.992294 14.492744 27,525 293 443 -2368
2022-12-05 20:36:51 GMT 54.987083 14.514438 28,025 293 444 -2368
2022-12-05 20:36:47 GMT 54.981262 14.538951 27,950 293 444 -2368
2022-12-05 20:36:43 GMT 54.981262 14.538951 28,075 293 444 -2432
2022-12-05 20:36:39 GMT 54.978519 14.550226 28,225 293 443 -2368
2022-12-05 20:36:36 GMT 54.976006 14.560797 28,350 293 443 -2368
2022-12-05 20:36:32 GMT 54.973022 14.573203 28,500 293 442 -2368
2022-12-05 20:36:28 GMT 54.969589 14.587420 28,650 293 442 -2368
2022-12-05 20:36:25 GMT 54.967209 14.597418 28,775 293 442 -2368
2022-12-05 20:36:22 GMT 54.965019 14.606490 28,900 293 441 -2368
2022-12-05 20:36:18 GMT 54.961853 14.619640 29,050 293 441 -2368
2022-12-05 20:36:15 GMT 54.959473 14.629427 29,125 293 441 -2368
2022-12-05 20:36:12 GMT 54.957199 14.639033 29,275 293 441 -2368
2022-12-05 20:36:09 GMT 54.954590 14.649686 29,400 293 442 -2432
2022-12-05 20:36:06 GMT 54.951752 14.661421 29,550 293 442 -2304
2022-12-05 20:36:02 GMT 54.949238 14.671908 29,650 293 442 -2304
2022-12-05 20:35:59 GMT 54.945793 14.686141 29,825 293 443 -2368
2022-12-05 20:35:55 GMT 54.943680 14.694860 29,925 293 443 -2368
2022-12-05 20:35:52 GMT 54.941322 14.704701 30,050 293 445 -2368
2022-12-05 20:35:49 GMT 54.938919 14.714490 30,200 293 445 -2368
2022-12-05 20:35:46 GMT 54.936676 14.723699 30,450 293 444 -2368
2022-12-05 20:35:40 GMT 54.928757 14.756577 31,975 293 445 -2368
2022-12-05 20:35:36 GMT 54.928757 14.756577 30,750 293 445 -2368
2022-12-05 20:35:32 GMT 54.925728 14.769037 30,850 293 445 -2368
2022-12-05 20:35:29 GMT 54.923080 14.779923 31,150 293 445 -2368
2022-12-05 20:35:26 GMT 54.920609 14.790095 31,175 293 445 -2368
2022-12-05 20:35:23 GMT 54.917908 14.801250 31,250 293 445 -2368
2022-12-05 20:35:19 GMT 54.914749 14.814336 31,350 293 445 -2304
2022-12-05 20:35:15 GMT 54.911064 14.829462 31,525 293 445 -2368
2022-12-05 20:35:11 GMT 54.908504 14.839949 31,650 293 446 -2368
2022-12-05 20:35:08 GMT 54.906464 14.848265 31,800 293 446 -2368
2022-12-05 20:35:05 GMT 54.904175 14.857716 31,875 293 447 -2432
2022-12-05 20:35:01 GMT 54.900169 14.874157 32,075 293 447 -2368
2022-12-05 20:34:58 GMT 54.898087 14.882839 32,175 293 448 -2304
2022-12-05 20:34:55 GMT 54.895657 14.892717 32,550 293 449 -2368
2022-12-05 20:34:51 GMT 54.892445 14.905950 32,450 293 449 -2432
2022-12-05 20:34:46 GMT 54.887604 14.925842 32,700 293 449 -2368
2022-12-05 20:34:41 GMT 54.884491 14.938417 32,825 293 450 -2240
2022-12-05 20:34:38 GMT 54.881287 14.951666 32,975 293 450 -2176
2022-12-05 20:34:35 GMT 54.879684 14.958209 33,500 294 448 -1024
2022-12-05 20:34:31 GMT 54.876434 14.971457 33,175 293 448 -1344
2022-12-05 20:34:28 GMT 54.873871 14.982040 33,225 293 448 -960
2022-12-05 20:34:25 GMT 54.871403 14.992093 33,275 293 448 -960
2022-12-05 20:34:21 GMT 54.868332 15.004658 33,325 293 448 -960
2022-12-05 20:34:18 GMT 54.862698 15.027632 33,575 294 447 -1024
2022-12-05 20:34:15 GMT 54.862698 15.027632 33,450 294 448 -1024
2022-12-05 20:34:11 GMT 54.860088 15.038286 33,500 294 448 -1024
2022-12-05 20:34:07 GMT 54.857250 15.049855 33,575 294 447 -1024
2022-12-05 20:34:04 GMT 54.854549 15.060674 33,600 294 447 -1024
2022-12-05 20:34:00 GMT 54.851711 15.072327 33,675 294 447 -1024
2022-12-05 20:33:57 GMT 54.849056 15.083063 33,800 294 448 -960
2022-12-05 20:33:54 GMT 54.845673 15.096911 33,800 293 448 -1024
2022-12-05 20:33:51 GMT 54.843475 15.105878 33,850 294 448 -896
2022-12-05 20:33:48 GMT 54.838211 15.127366 33,900 294 450 -1024
2022-12-05 20:33:44 GMT 54.838211 15.127366 33,975 294 450 -1024
2022-12-05 20:33:41 GMT 54.835743 15.137329 33,975 294 450 -640
2022-12-05 20:33:38 GMT 54.833416 15.146568 34,000 294 449 -64
2022-12-05 20:33:35 GMT 54.830338 15.159194 34,000 294 450 0
2022-12-05 20:33:31 GMT 54.827877 15.169040 34,000 294 449 0
2022-12-05 20:33:28 GMT 54.824799 15.181651 34,000 294 450 0
2022-12-05 20:33:24 GMT 54.822334 15.191512 34,000 294 449 -64
2022-12-05 20:33:21 GMT 54.819580 15.202735 34,000 294 449 -64
2022-12-05 20:33:16 GMT 54.813034 15.229151 34,000 294 449 64
2022-12-05 20:33:12 GMT 54.811581 15.235124 34,000 294 446 0
2022-12-05 20:33:09 GMT 54.810150 15.240864 34,000 294 446 0
2022-12-05 20:33:06 GMT 54.804886 15.262191 34,000 294 446 0
2022-12-05 20:33:03 GMT 54.804886 15.262191 34,000 294 449 -64
2022-12-05 20:33:00 GMT 54.802410 15.272078 34,000 294 449 -64
2022-12-05 20:32:57 GMT 54.796692 15.294908 34,000 294 445 0
2022-12-05 20:32:53 GMT 54.796692 15.294908 34,000 294 448 -64
2022-12-05 20:32:49 GMT 54.793716 15.306944 34,000 294 447 64
2022-12-05 20:32:46 GMT 54.791199 15.317123 34,000 294 447 64
2022-12-05 20:32:43 GMT 54.788960 15.326011 34,000 294 446 0
2022-12-05 20:32:40 GMT 54.786026 15.337746 34,000 294 446 64
2022-12-05 20:32:37 GMT 54.783554 15.347577 34,000 294 444 64
2022-12-05 20:32:34 GMT 54.780766 15.358720 34,000 294 444 64
2022-12-05 20:32:30 GMT 54.778015 15.369792 34,000 294 445 0
2022-12-05 20:32:27 GMT 54.775551 15.379528 34,000 294 445 -64
2022-12-05 20:32:24 GMT 54.772247 15.392512 34,000 294 444 0
2022-12-05 20:32:20 GMT 54.769638 15.402915 34,000 294 444 0
2022-12-05 20:32:17 GMT 54.766335 15.415982 34,000 294 444 64
2022-12-05 20:32:14 GMT 54.765198 15.420523 34,000 294 444 64
2022-12-05 20:32:11 GMT 54.761902 15.433448 34,000 294 444 0
2022-12-05 20:32:08 GMT 54.759888 15.441284 34,000 294 444 0
2022-12-05 20:32:05 GMT 54.756912 15.452917 34,000 295 444 -64
2022-12-05 20:32:01 GMT 54.753391 15.466586 34,000 294 445 -64
2022-12-05 20:31:58 GMT 54.751160 15.475325 34,000 294 445 0
2022-12-05 20:31:53 GMT 54.746979 15.491692 34,000 294 446 0
2022-12-05 20:31:49 GMT 54.743362 15.506233 34,000 294 447 0
2022-12-05 20:31:46 GMT 54.738682 15.525013 34,000 294 448 -64
2022-12-05 20:31:43 GMT 54.736496 15.533375 34,000 294 447 -64
2022-12-05 20:31:40 GMT 54.736496 15.533375 34,000 296 448 -64
2022-12-05 20:31:36 GMT 54.732723 15.547319 34,000 296 449 0
2022-12-05 20:31:33 GMT 54.729996 15.556964 34,000 297 449 64
2022-12-05 20:31:30 GMT 54.727230 15.566628 34,000 298 449 0
2022-12-05 20:31:27 GMT 54.723999 15.577482 34,000 298 450 64
2022-12-05 20:31:23 GMT 54.720291 15.589516 34,000 299 450 -64
2022-12-05 20:31:19 GMT 54.715965 15.603083 34,000 300 450 64
2022-12-05 20:31:16 GMT 54.712784 15.612703 34,000 302 450 64
2022-12-05 20:31:12 GMT 54.709587 15.621893 34,000 302 450 64
2022-12-05 20:31:08 GMT 54.705349 15.633795 34,000 303 450 -64
2022-12-05 20:31:05 GMT 54.701935 15.642835 34,000 305 451 0
2022-12-05 20:31:02 GMT 54.698547 15.651478 34,000 306 450 64
2022-12-05 20:30:59 GMT 54.694748 15.660930 34,000 306 450 64
2022-12-05 20:30:56 GMT 54.690994 15.669978 34,000 306 449 128
2022-12-05 20:30:53 GMT 54.682068 15.691223 34,000 306 449 0
2022-12-05 20:30:49 GMT 54.682068 15.691223 34,000 306 449 -64
2022-12-05 20:30:46 GMT 54.678535 15.699713 34,000 306 449 -64
2022-12-05 20:30:42 GMT 54.673874 15.710772 34,000 306 449 0
2022-12-05 20:30:39 GMT 54.665543 15.730645 34,000 306 448 0
2022-12-05 20:30:36 GMT 54.665543 15.730645 34,000 306 448 -64
2022-12-05 20:30:31 GMT 54.660988 15.741494 34,000 306 448 -64
2022-12-05 20:30:28 GMT 54.656658 15.751814 34,000 306 448 64
2022-12-05 20:30:25 GMT 54.653046 15.760453 34,000 306 446 -64
2022-12-05 20:30:22 GMT 54.644974 15.779613 34,000 306 446 -64
2022-12-05 20:30:19 GMT 54.640366 15.790585 34,000 306 446 64
2022-12-05 20:30:15 GMT 54.640366 15.790585 34,000 306 446 64
2022-12-05 20:30:12 GMT 54.636730 15.799172 34,000 306 444 -64
2022-12-05 20:30:07 GMT 54.631985 15.810491 34,000 306 444 64
2022-12-05 20:30:04 GMT 54.628075 15.819813 34,000 307 443 -64
2022-12-05 20:30:01 GMT 54.624435 15.828391 34,000 307 443 0
2022-12-05 20:29:57 GMT 54.616287 15.847778 34,000 306 442 -64
2022-12-05 20:29:54 GMT 54.616287 15.847778 34,000 306 442 -64
2022-12-05 20:29:51 GMT 54.612442 15.856826 34,000 307 441 0
2022-12-05 20:29:48 GMT 54.609314 15.864258 34,000 307 441 64
2022-12-05 20:29:45 GMT 54.605209 15.873871 34,000 307 441 64
2022-12-05 20:29:41 GMT 54.600449 15.885180 34,000 307 440 64
2022-12-05 20:29:37 GMT 54.595184 15.897621 34,000 307 440 64
2022-12-05 20:29:34 GMT 54.592091 15.904957 34,000 307 439 0
2022-12-05 20:29:31 GMT 54.588272 15.914029 34,000 307 438 -64
2022-12-05 20:29:27 GMT 54.583103 15.926181 34,000 307 438 -64
2022-12-05 20:29:23 GMT 54.577751 15.938832 34,000 307 438 -64
2022-12-05 20:29:20 GMT 54.576096 15.942778 34,000 307 438 0
2022-12-05 20:29:16 GMT 54.570007 15.957238 34,000 307 439 0
2022-12-05 20:29:13 GMT 54.567741 15.962552 34,000 307 439 -64
2022-12-05 20:29:10 GMT 54.563507 15.972623 34,000 307 440 0
2022-12-05 20:29:06 GMT 54.558662 15.984025 34,000 307 441 0
2022-12-05 20:29:03 GMT 54.555779 15.990767 34,000 307 441 0
2022-12-05 20:29:00 GMT 54.550983 16.002087 34,000 307 441 0
2022-12-05 20:28:56 GMT 54.546700 16.012239 34,000 307 443 -64
2022-12-05 20:28:53 GMT 54.542999 16.020813 34,000 307 443 -64
2022-12-05 20:28:49 GMT 54.538460 16.031633 34,000 307 443 0
2022-12-05 20:28:45 GMT 54.532223 16.046198 34,000 307 444 64
2022-12-05 20:28:42 GMT 54.530045 16.051430 34,000 307 444 64
2022-12-05 20:28:39 GMT 54.526611 16.059507 34,000 307 445 64
2022-12-05 20:28:36 GMT 54.519047 16.077160 34,000 307 445 64
2022-12-05 20:28:33 GMT 54.519047 16.077160 34,000 307 445 0
2022-12-05 20:28:30 GMT 54.515182 16.086231 34,000 307 445 0
2022-12-05 20:28:25 GMT 54.508991 16.100798 34,000 307 445 -64
2022-12-05 20:28:22 GMT 54.506241 16.107330 34,000 307 445 -64
2022-12-05 20:28:19 GMT 54.502396 16.116297 34,000 307 445 -64
2022-12-05 20:28:14 GMT 54.489952 16.145491 34,000 307 445 0
2022-12-05 20:28:10 GMT 54.489952 16.145491 34,000 307 445 -64
2022-12-05 20:28:07 GMT 54.487534 16.151152 34,000 307 445 -64
2022-12-05 20:28:04 GMT 54.483490 16.160566 34,000 307 445 64
2022-12-05 20:28:01 GMT 54.479965 16.168804 34,000 307 445 64
2022-12-05 20:27:56 GMT 54.473381 16.184111 34,000 307 445 0
2022-12-05 20:27:52 GMT 54.464401 16.205238 34,000 307 445 0
2022-12-05 20:27:49 GMT 54.464401 16.205238 34,000 307 445 64
2022-12-05 20:27:44 GMT 54.458809 16.218233 34,000 307 445 -64
2022-12-05 20:27:41 GMT 54.455410 16.226225 34,000 307 444 0
2022-12-05 20:27:37 GMT 54.450302 16.238115 34,000 307 444 -64
2022-12-05 20:27:34 GMT 54.445774 16.248695 34,000 307 444 -64
2022-12-05 20:27:31 GMT 54.444077 16.252739 34,000 307 444 -64
2022-12-05 20:27:28 GMT 54.438839 16.264843 34,000 307 444 -64
2022-12-05 20:27:24 GMT 54.433868 16.276487 34,000 307 444 64
2022-12-05 20:27:20 GMT 54.430893 16.283354 34,000 307 444 64
2022-12-05 20:27:16 GMT 54.421848 16.304461 34,000 307 443 64
2022-12-05 20:27:13 GMT 54.418716 16.311789 34,000 307 442 64
2022-12-05 20:27:10 GMT 54.418716 16.311789 34,000 307 443 0
2022-12-05 20:27:06 GMT 54.409744 16.332676 34,000 307 442 0
2022-12-05 20:27:03 GMT 54.409744 16.332676 34,000 307 442 0
2022-12-05 20:26:59 GMT 54.404438 16.345076 34,000 307 442 0
2022-12-05 20:26:56 GMT 54.397385 16.361469 34,000 307 442 0
2022-12-05 20:26:53 GMT 54.397385 16.361469 34,000 307 442 -64
2022-12-05 20:26:50 GMT 54.393730 16.369879 34,000 307 442 0
2022-12-05 20:26:46 GMT 54.387909 16.383362 34,000 307 442 -64
2022-12-05 20:26:42 GMT 54.384384 16.391602 34,000 307 442 -64
2022-12-05 20:26:37 GMT 54.374828 16.413740 34,000 307 444 -64
2022-12-05 20:26:33 GMT 54.372620 16.418825 34,000 307 444 -64
2022-12-05 20:26:29 GMT 54.368820 16.427629 34,000 307 444 0
2022-12-05 20:26:25 GMT 54.363831 16.439182 34,000 307 444 64
2022-12-05 20:26:22 GMT 54.359573 16.449038 34,000 307 444 64
2022-12-05 20:26:19 GMT 54.356346 16.456438 34,000 307 444 0
2022-12-05 20:26:16 GMT 54.351105 16.468506 34,000 307 444 0
2022-12-05 20:26:11 GMT 54.345966 16.480324 34,000 307 445 -64
2022-12-05 20:26:08 GMT 54.342316 16.488783 34,000 307 445 -64
2022-12-05 20:26:05 GMT 54.338882 16.496698 34,000 307 445 -64
2022-12-05 20:26:02 GMT 54.333862 16.508455 34,000 307 444 64
2022-12-05 20:25:57 GMT 54.326088 16.526352 34,000 307 445 0
2022-12-05 20:25:54 GMT 54.322041 16.535671 34,000 307 444 64
2022-12-05 20:25:47 GMT 54.316910 16.547510 34,000 307 444 -64
2022-12-05 20:25:43 GMT 54.307377 16.569464 34,000 307 444 0
2022-12-05 20:25:39 GMT 54.307377 16.569464 34,000 307 443 -64
2022-12-05 20:25:36 GMT 54.302628 16.580450 34,000 307 443 -64
2022-12-05 20:25:33 GMT 54.298622 16.589687 34,000 307 443 -64
2022-12-05 20:25:29 GMT 54.294937 16.598162 34,000 307 443 64
2022-12-05 20:25:24 GMT 54.289581 16.610519 34,000 307 443 0
2022-12-05 20:25:21 GMT 54.285496 16.619818 34,000 307 442 0
2022-12-05 20:25:17 GMT 54.280426 16.631523 34,000 307 442 64
2022-12-05 20:25:14 GMT 54.276398 16.640757 34,000 307 442 0
2022-12-05 20:25:11 GMT 54.273205 16.648003 34,000 307 441 0
2022-12-05 20:25:08 GMT 54.264919 16.666986 34,000 307 441 64
2022-12-05 20:25:05 GMT 54.264919 16.666986 34,000 307 441 0
2022-12-05 20:25:01 GMT 54.260078 16.678135 34,000 307 440 0
2022-12-05 20:24:57 GMT 54.255795 16.687990 34,000 307 440 0
2022-12-05 20:24:54 GMT 54.252304 16.695988 34,000 307 440 0
2022-12-05 20:24:50 GMT 54.247192 16.707615 34,000 307 440 -64
2022-12-05 20:24:47 GMT 54.243553 16.715940 34,000 307 440 64
2022-12-05 20:24:40 GMT 54.234558 16.736494 34,000 307 440 0
2022-12-05 20:24:36 GMT 54.230423 16.745991 34,000 307 439 -64
2022-12-05 20:24:31 GMT 54.224606 16.759319 34,000 307 440 -64
2022-12-05 20:24:27 GMT 54.217854 16.774670 34,000 307 439 -64
2022-12-05 20:24:24 GMT 54.215340 16.780403 34,000 307 439 -64
2022-12-05 20:24:19 GMT 54.209290 16.794250 34,000 307 439 -64
2022-12-05 20:24:15 GMT 54.200256 16.814817 34,000 307 438 0
2022-12-05 20:24:11 GMT 54.200256 16.814817 34,000 307 438 64
2022-12-05 20:24:07 GMT 54.195976 16.824593 34,000 307 438 0
2022-12-05 20:24:04 GMT 54.191299 16.835293 34,000 307 438 0
2022-12-05 20:24:01 GMT 54.187691 16.843576 34,000 307 438 -64
2022-12-05 20:23:57 GMT 54.178520 16.864498 34,000 307 437 0
2022-12-05 20:23:54 GMT 54.178520 16.864498 34,000 307 437 0
2022-12-05 20:23:46 GMT 54.169647 16.884651 34,000 307 436 -64
2022-12-05 20:23:43 GMT 54.166214 16.892578 34,000 307 435 64
2022-12-05 20:23:39 GMT 54.161453 16.903330 34,000 307 436 -64
2022-12-05 20:23:36 GMT 54.157337 16.912643 34,000 307 435 0
2022-12-05 20:23:33 GMT 54.150787 16.927500 34,000 307 435 64
2022-12-05 20:23:30 GMT 54.150787 16.927500 34,000 307 435 0
2022-12-05 20:23:26 GMT 54.144516 16.941704 34,000 307 435 64
2022-12-05 20:23:23 GMT 54.141788 16.947865 34,000 307 435 64
2022-12-05 20:23:16 GMT 54.133129 16.967495 34,000 307 435 0
2022-12-05 20:23:13 GMT 54.129593 16.975525 34,000 307 435 0
2022-12-05 20:23:06 GMT 54.121857 16.993103 34,000 307 434 0
2022-12-05 20:23:03 GMT 54.117599 17.002834 34,000 307 435 -64
2022-12-05 20:23:00 GMT 54.114834 17.009098 34,000 307 435 0
2022-12-05 20:22:52 GMT 54.100777 17.040846 34,000 308 436 0
2022-12-05 20:22:46 GMT 54.098190 17.046543 34,000 308 436 -64
2022-12-05 20:22:42 GMT 54.092743 17.058865 34,000 308 436 -64
2022-12-05 20:22:36 GMT 54.085785 17.074532 34,000 308 437 0
2022-12-05 20:22:32 GMT 54.080612 17.086172 34,000 308 437 0
2022-12-05 20:22:26 GMT 54.072968 17.103516 34,000 308 437 0
2022-12-05 20:22:22 GMT 54.067772 17.115246 34,000 308 437 64
2022-12-05 20:22:14 GMT 54.058823 17.135454 34,000 308 436 0
2022-12-05 20:22:11 GMT 54.055157 17.143600 34,000 308 436 0
2022-12-05 20:22:04 GMT 54.046543 17.163069 34,000 308 436 0
2022-12-05 20:22:01 GMT 54.042801 17.171474 34,000 308 436 0
2022-12-05 20:21:55 GMT 54.036255 17.186172 34,000 308 436 -64
2022-12-05 20:21:52 GMT 54.031506 17.196835 34,000 308 436 -64
2022-12-05 20:21:46 GMT 54.024399 17.212751 34,000 308 435 64
2022-12-05 20:21:41 GMT 54.011215 17.242256 34,000 308 435 0
2022-12-05 20:21:35 GMT 54.011215 17.242256 34,000 308 435 0
2022-12-05 20:21:31 GMT 54.005764 17.254513 34,000 308 435 64
2022-12-05 20:21:25 GMT 53.994736 17.279219 34,000 308 435 0
2022-12-05 20:21:22 GMT 53.994736 17.279219 34,000 308 435 0
2022-12-05 20:21:19 GMT 53.992310 17.284634 34,000 308 435 0
2022-12-05 20:21:14 GMT 53.986084 17.298601 34,000 308 435 0
2022-12-05 20:21:10 GMT 53.980484 17.311140 34,000 308 435 64
2022-12-05 20:21:05 GMT 53.975132 17.323097 34,000 308 436 -64
2022-12-05 20:20:59 GMT 53.967262 17.340626 34,000 308 438 -64
2022-12-05 20:20:53 GMT 53.959213 17.358635 34,000 308 439 0
2022-12-05 20:20:49 GMT 53.954727 17.368523 34,000 308 439 -64
2022-12-05 20:20:45 GMT 53.950134 17.378836 34,000 308 441 0
2022-12-05 20:20:41 GMT 53.944839 17.390574 34,000 308 441 64
2022-12-05 20:20:38 GMT 53.941662 17.397739 34,000 308 441 0
2022-12-05 20:20:34 GMT 53.937702 17.406544 34,000 308 441 64
2022-12-05 20:20:31 GMT 53.933281 17.416401 34,000 308 441 64
2022-12-05 20:20:28 GMT 53.928394 17.427225 34,000 308 441 -64
2022-12-05 20:20:24 GMT 53.924854 17.435061 34,000 308 441 -64
2022-12-05 20:20:19 GMT 53.917454 17.451540 34,000 308 441 64
2022-12-05 20:20:14 GMT 53.912613 17.462284 34,000 308 440 64
2022-12-05 20:20:11 GMT 53.909073 17.470119 34,000 308 440 0
2022-12-05 20:20:07 GMT 53.902496 17.484741 34,000 308 440 0
2022-12-05 20:20:04 GMT 53.894623 17.502241 34,000 308 440 0
2022-12-05 20:20:00 GMT 53.894623 17.502241 34,000 308 440 0
2022-12-05 20:19:56 GMT 53.889267 17.514248 34,000 308 440 -64
2022-12-05 20:19:53 GMT 53.885937 17.521578 34,000 308 440 0
2022-12-05 20:19:50 GMT 53.882263 17.529785 34,000 308 440 0
2022-12-05 20:19:47 GMT 53.879047 17.536926 34,000 308 437 64
2022-12-05 20:19:44 GMT 53.875397 17.544931 34,000 308 440 -64
2022-12-05 20:19:40 GMT 53.870716 17.555346 34,000 308 441 -64
2022-12-05 20:19:37 GMT 53.866928 17.563686 34,000 308 441 -64
2022-12-05 20:19:33 GMT 53.862442 17.573574 34,000 308 440 -64
2022-12-05 20:19:30 GMT 53.856750 17.586123 34,000 308 440 0
2022-12-05 20:19:27 GMT 53.854328 17.591536 34,000 308 440 0
2022-12-05 20:19:22 GMT 53.848114 17.605276 34,000 308 439 64
2022-12-05 20:19:18 GMT 53.842457 17.617788 34,000 308 439 64
2022-12-05 20:19:12 GMT 53.835892 17.632273 34,000 308 438 -64
2022-12-05 20:19:09 GMT 53.832077 17.640650 34,000 308 438 -64
2022-12-05 20:19:06 GMT 53.824768 17.656807 34,000 308 438 0
2022-12-05 20:19:03 GMT 53.824768 17.656807 34,000 308 438 64
2022-12-05 20:18:58 GMT 53.819046 17.669312 34,000 308 438 -64
2022-12-05 20:18:55 GMT 53.814651 17.679043 34,000 308 438 0
2022-12-05 20:18:50 GMT 53.808701 17.692146 34,000 308 438 0
2022-12-05 20:18:47 GMT 53.803802 17.702976 34,000 308 438 64
2022-12-05 20:18:41 GMT 53.797897 17.715925 34,000 308 437 64
2022-12-05 20:18:38 GMT 53.794182 17.724098 34,000 308 437 0
2022-12-05 20:18:32 GMT 53.785339 17.743484 34,000 308 437 -64
2022-12-05 20:18:29 GMT 53.781601 17.751709 34,000 308 437 0
2022-12-05 20:18:25 GMT 53.774956 17.766348 34,000 308 437 64
2022-12-05 20:18:20 GMT 53.770630 17.775799 34,000 308 436 0
2022-12-05 20:18:17 GMT 53.766579 17.784683 34,000 308 436 64
2022-12-05 20:18:13 GMT 53.756516 17.806799 34,000 308 435 -64
2022-12-05 20:18:07 GMT 53.756516 17.806799 34,000 308 435 -64
2022-12-05 20:18:04 GMT 53.752167 17.816294 34,000 308 435 0
2022-12-05 20:18:00 GMT 53.746811 17.828064 34,000 308 434 64
2022-12-05 20:17:57 GMT 53.744095 17.833961 34,000 308 433 64
2022-12-05 20:17:53 GMT 53.739204 17.844706 34,000 308 432 0
2022-12-05 20:17:50 GMT 53.733852 17.856499 34,000 308 432 64
2022-12-05 20:17:47 GMT 53.731430 17.861750 34,000 308 431 64
2022-12-05 20:17:44 GMT 53.726715 17.872087 34,000 308 431 0
2022-12-05 20:17:41 GMT 53.724289 17.877424 34,000 308 431 0
2022-12-05 20:17:37 GMT 53.719437 17.888096 34,000 308 430 -128
2022-12-05 20:17:32 GMT 53.713120 17.901829 34,000 308 430 0
2022-12-05 20:17:29 GMT 53.709366 17.910069 34,000 308 430 64
2022-12-05 20:17:26 GMT 53.706573 17.916197 34,000 308 430 0
2022-12-05 20:17:22 GMT 53.700706 17.928881 34,000 308 430 64
2022-12-05 20:17:17 GMT 53.694515 17.942451 34,000 308 430 64
2022-12-05 20:17:13 GMT 53.689629 17.953033 34,000 308 429 -64
2022-12-05 20:17:10 GMT 53.686523 17.959900 34,000 308 429 64
2022-12-05 20:17:07 GMT 53.682735 17.968060 34,000 308 429 0
2022-12-05 20:17:03 GMT 53.677429 17.979691 34,000 308 429 64
2022-12-05 20:16:59 GMT 53.672543 17.990274 34,000 308 429 0
2022-12-05 20:16:56 GMT 53.668533 17.998980 34,000 308 429 -64
2022-12-05 20:16:52 GMT 53.664768 18.007156 34,000 308 429 -64
2022-12-05 20:16:49 GMT 53.656265 18.025661 34,000 308 429 0
2022-12-05 20:16:46 GMT 53.656265 18.025661 34,000 308 429 64
2022-12-05 20:16:41 GMT 53.651268 18.036482 34,000 308 430 0
2022-12-05 20:16:37 GMT 53.645691 18.048655 34,000 308 430 0
2022-12-05 20:16:34 GMT 53.642624 18.055246 34,000 308 431 64
2022-12-05 20:16:31 GMT 53.638824 18.063564 34,000 308 431 0
2022-12-05 20:16:28 GMT 53.634090 18.073803 34,000 308 431 -64
2022-12-05 20:16:25 GMT 53.630447 18.081692 34,000 308 431 -64
2022-12-05 20:16:20 GMT 53.624313 18.094967 34,000 308 431 -64
2022-12-05 20:16:15 GMT 53.617985 18.108700 34,000 308 431 64
2022-12-05 20:16:12 GMT 53.614536 18.116133 34,000 308 431 64
2022-12-05 20:16:09 GMT 53.611496 18.122732 34,000 308 431 64
2022-12-05 20:16:06 GMT 53.608521 18.129168 34,000 308 431 64
2022-12-05 20:16:02 GMT 53.602295 18.142628 34,000 308 431 -64
2022-12-05 20:15:59 GMT 53.600098 18.147373 34,000 308 431 0
2022-12-05 20:15:56 GMT 53.595795 18.156712 34,000 308 431 0
2022-12-05 20:15:53 GMT 53.591812 18.165266 34,000 308 431 -64
2022-12-05 20:15:49 GMT 53.582153 18.186218 34,000 308 431 64
2022-12-05 20:15:44 GMT 53.576660 18.197989 34,000 308 431 0
2022-12-05 20:15:40 GMT 53.571762 18.208506 34,000 308 429 -64
2022-12-05 20:15:37 GMT 53.571762 18.208506 34,000 309 430 0
2022-12-05 20:15:34 GMT 53.569427 18.213606 34,000 309 430 0
2022-12-05 20:15:31 GMT 53.564682 18.223814 34,000 308 429 -64
2022-12-05 20:15:28 GMT 53.562260 18.229065 34,000 308 429 -64
2022-12-05 20:15:25 GMT 53.551208 18.252764 34,000 309 430 64
2022-12-05 20:15:20 GMT 53.551208 18.252764 34,000 309 430 -64
2022-12-05 20:15:16 GMT 53.546814 18.262180 34,000 308 429 -64
2022-12-05 20:15:13 GMT 53.544388 18.267439 34,000 308 429 -64
2022-12-05 20:15:09 GMT 53.538799 18.279472 34,000 308 428 0
2022-12-05 20:15:06 GMT 53.533909 18.289974 34,000 308 428 0
2022-12-05 20:15:03 GMT 53.525391 18.308323 34,000 308 428 -64
2022-12-05 20:14:58 GMT 53.525391 18.308323 34,000 308 428 -64
2022-12-05 20:14:55 GMT 53.521042 18.317739 34,000 309 428 -64
2022-12-05 20:14:52 GMT 53.517849 18.324549 34,000 309 428 0
2022-12-05 20:14:49 GMT 53.515057 18.330526 34,000 308 427 0
2022-12-05 20:14:46 GMT 53.510330 18.340733 34,000 308 427 0
2022-12-05 20:14:43 GMT 53.507236 18.347248 34,000 308 427 64
2022-12-05 20:14:38 GMT 53.500813 18.361061 34,000 308 427 64
2022-12-05 20:14:35 GMT 53.493805 18.376125 34,000 308 427 64
2022-12-05 20:14:32 GMT 53.493805 18.376125 34,000 308 427 0
2022-12-05 20:14:28 GMT 53.485310 18.394344 34,000 308 427 0
2022-12-05 20:14:25 GMT 53.485310 18.394344 34,000 309 428 -64
2022-12-05 20:14:22 GMT 53.482376 18.400646 34,000 309 428 -64
2022-12-05 20:14:18 GMT 53.476822 18.412537 34,000 309 427 0
2022-12-05 20:14:15 GMT 53.472134 18.422537 34,000 309 427 0
2022-12-05 20:14:12 GMT 53.469715 18.427708 34,000 309 427 0
2022-12-05 20:14:08 GMT 53.464359 18.439098 34,000 309 428 128
2022-12-05 20:14:05 GMT 53.459702 18.449026 34,000 309 428 128
2022-12-05 20:14:02 GMT 53.457275 18.454206 34,000 309 428 64
2022-12-05 20:13:57 GMT 53.451233 18.467129 34,000 309 429 -64
2022-12-05 20:13:54 GMT 53.444595 18.481358 34,000 309 429 -64
2022-12-05 20:13:51 GMT 53.444595 18.481358 34,000 309 429 0
2022-12-05 20:13:47 GMT 53.438942 18.493383 34,000 309 430 64
2022-12-05 20:13:44 GMT 53.435257 18.501211 34,000 309 430 64
2022-12-05 20:13:41 GMT 53.431683 18.508892 34,000 309 430 64
2022-12-05 20:13:37 GMT 53.426792 18.519314 33,975 309 430 320
2022-12-05 20:13:34 GMT 53.422028 18.529463 33,950 309 430 640
2022-12-05 20:13:31 GMT 53.419346 18.535229 33,650 309 431 1024
2022-12-05 20:13:26 GMT 53.408752 18.557793 33,825 309 431 1024
2022-12-05 20:13:23 GMT 53.408752 18.557793 33,800 309 432 960
2022-12-05 20:13:18 GMT 53.403305 18.569326 33,725 309 433 960
2022-12-05 20:13:12 GMT 53.388714 18.600338 33,525 309 435 1024
2022-12-05 20:13:07 GMT 53.388714 18.600338 33,550 309 435 1024
2022-12-05 20:13:03 GMT 53.383484 18.611389 33,450 309 437 1024
2022-12-05 20:12:57 GMT 53.376938 18.625278 33,375 309 437 1024
2022-12-05 20:12:54 GMT 53.372654 18.634268 33,325 309 437 960
2022-12-05 20:12:51 GMT 53.370186 18.639599 33,325 309 437 960
2022-12-05 20:12:46 GMT 53.362885 18.655022 33,100 309 439 1088
2022-12-05 20:12:42 GMT 53.356888 18.667812 33,125 309 439 1088
2022-12-05 20:12:35 GMT 53.350075 18.682171 32,975 309 440 1088
2022-12-05 20:12:32 GMT 53.345001 18.692913 32,950 309 440 1024
2022-12-05 20:12:29 GMT 53.342487 18.698246 32,900 309 440 960
2022-12-05 20:12:25 GMT 53.337296 18.709167 32,875 309 441 832
2022-12-05 20:12:22 GMT 53.333408 18.717390 32,800 309 441 768
2022-12-05 20:12:19 GMT 53.329357 18.725954 32,700 309 440 832
2022-12-05 20:12:16 GMT 53.325714 18.733730 32,725 309 440 832
2022-12-05 20:12:13 GMT 53.320747 18.744129 32,675 309 440 832
2022-12-05 20:12:09 GMT 53.316326 18.753502 32,650 309 440 832
2022-12-05 20:12:06 GMT 53.311935 18.762766 32,600 309 440 832
2022-12-05 20:12:02 GMT 53.307758 18.771597 32,550 309 440 768
2022-12-05 20:11:58 GMT 53.302368 18.783010 32,475 309 439 832
2022-12-05 20:11:55 GMT 53.299194 18.789692 32,375 309 439 832
2022-12-05 20:11:52 GMT 53.295563 18.797365 32,375 309 439 768
2022-12-05 20:11:48 GMT 53.291000 18.806896 32,375 309 439 768
2022-12-05 20:11:45 GMT 53.286209 18.816990 32,325 309 439 768
2022-12-05 20:11:41 GMT 53.281502 18.826851 32,275 309 439 832
2022-12-05 20:11:36 GMT 53.274895 18.840826 32,175 309 439 832
2022-12-05 20:11:33 GMT 53.271103 18.848772 32,125 309 439 832
2022-12-05 20:11:30 GMT 53.268082 18.855129 32,125 309 439 832
2022-12-05 20:11:27 GMT 53.262791 18.866272 32,050 309 439 896
2022-12-05 20:11:24 GMT 53.260788 18.870474 32,050 309 439 896
2022-12-05 20:11:21 GMT 53.256134 18.880239 31,375 309 436 1024
2022-12-05 20:11:17 GMT 53.251709 18.889456 31,950 309 438 896
2022-12-05 20:11:14 GMT 53.247940 18.897427 31,350 309 437 1088
2022-12-05 20:11:11 GMT 53.243408 18.906921 31,850 309 437 896
2022-12-05 20:11:04 GMT 53.234577 18.925404 31,725 309 438 960
2022-12-05 20:11:00 GMT 53.229309 18.936506 31,675 309 437 1024
2022-12-05 20:10:54 GMT 53.222260 18.951181 31,525 309 438 1088
2022-12-05 20:10:50 GMT 53.217224 18.961775 31,525 309 437 1088
2022-12-05 20:10:47 GMT 53.209023 18.978964 31,425 309 437 1088
2022-12-05 20:10:44 GMT 53.209023 18.978964 31,400 309 437 1024
2022-12-05 20:10:39 GMT 53.204132 18.989162 31,325 309 437 960
2022-12-05 20:10:34 GMT 53.197220 19.003601 31,200 309 436 960
2022-12-05 20:10:31 GMT 53.193100 19.012234 31,100 309 436 1024
2022-12-05 20:10:27 GMT 53.187283 19.024363 31,100 309 436 1024
2022-12-05 20:10:24 GMT 53.184540 19.030125 31,025 309 436 1024
2022-12-05 20:10:21 GMT 53.180763 19.037933 31,025 309 436 1024
2022-12-05 20:10:18 GMT 53.176987 19.045820 30,925 309 436 960
2022-12-05 20:10:14 GMT 53.167217 19.066208 30,825 309 423 0
2022-12-05 20:10:11 GMT 53.167217 19.066208 30,825 309 435 1024
2022-12-05 20:10:08 GMT 53.165169 19.070408 30,800 309 435 1024
2022-12-05 20:10:03 GMT 53.151669 19.098600 30,650 309 435 1024
2022-12-05 20:09:59 GMT 53.151669 19.098600 30,625 309 434 1024
2022-12-05 20:09:54 GMT 53.145618 19.111122 30,550 309 434 896
2022-12-05 20:09:51 GMT 53.141464 19.119663 30,500 309 433 960
2022-12-05 20:09:48 GMT 53.139610 19.123562 30,475 309 433 960
2022-12-05 20:09:43 GMT 53.133362 19.136457 30,400 309 428 832
2022-12-05 20:09:40 GMT 53.128113 19.147312 30,350 309 432 896
2022-12-05 20:09:37 GMT 53.125553 19.152643 30,325 309 432 896
2022-12-05 20:09:33 GMT 53.120621 19.162823 30,200 309 423 0
2022-12-05 20:09:30 GMT 53.116791 19.170750 30,200 309 431 1024
2022-12-05 20:09:27 GMT 53.111847 19.181030 30,125 309 431 1024
2022-12-05 20:09:23 GMT 53.107452 19.190056 30,075 309 430 1024
2022-12-05 20:09:19 GMT 53.101868 19.201590 30,000 309 429 960
2022-12-05 20:09:16 GMT 53.098892 19.207790 29,950 309 429 832
2022-12-05 20:09:13 GMT 53.095917 19.213989 29,900 309 428 832
2022-12-05 20:09:10 GMT 53.091110 19.224014 29,875 309 428 768
2022-12-05 20:09:07 GMT 53.088043 19.230347 29,800 309 426 832
2022-12-05 20:09:03 GMT 53.083332 19.240044 29,750 309 425 832
2022-12-05 20:09:00 GMT 53.079163 19.248657 29,750 309 425 832
2022-12-05 20:08:57 GMT 53.075462 19.256287 29,700 309 424 960
2022-12-05 20:08:53 GMT 53.070065 19.267508 25,250 309 423 1024
2022-12-05 20:08:49 GMT 53.066391 19.275055 29,200 309 423 1152
2022-12-05 20:08:46 GMT 53.062042 19.284058 29,525 309 423 1280
2022-12-05 20:08:42 GMT 53.057865 19.292776 29,450 309 423 1408
2022-12-05 20:08:39 GMT 53.053757 19.301224 29,375 309 423 1472
2022-12-05 20:08:35 GMT 53.049316 19.310455 29,225 309 423 1536
2022-12-05 20:08:32 GMT 53.045425 19.318390 29,150 309 423 1408
2022-12-05 20:08:28 GMT 53.040688 19.328169 29,100 309 423 1280
2022-12-05 20:08:24 GMT 53.033848 19.342295 28,975 309 423 1152
2022-12-05 20:08:19 GMT 53.025047 19.360500 28,850 309 422 1152
2022-12-05 20:08:14 GMT 53.022903 19.364929 28,800 309 422 1088
2022-12-05 20:08:11 GMT 53.020206 19.370466 28,775 309 422 1088
2022-12-05 20:08:07 GMT 53.015270 19.380510 28,675 309 421 1280
2022-12-05 20:08:02 GMT 53.008163 19.395218 28,500 309 416 0
2022-12-05 20:07:58 GMT 53.003769 19.404144 28,475 309 421 1472
2022-12-05 20:07:55 GMT 52.999119 19.413782 28,375 309 421 1472
2022-12-05 20:07:52 GMT 52.995720 19.420769 28,300 309 421 1408
2022-12-05 20:07:48 GMT 52.991299 19.429871 28,225 309 421 1280
2022-12-05 20:07:44 GMT 52.986649 19.439392 28,125 309 421 1024
2022-12-05 20:07:41 GMT 52.983055 19.446821 28,100 309 421 960
2022-12-05 20:07:37 GMT 52.978867 19.455414 28,050 309 420 960
2022-12-05 20:07:32 GMT 52.971325 19.470913 27,925 309 418 1088
2022-12-05 20:07:29 GMT 52.967743 19.478302 27,875 309 418 1216
2022-12-05 20:07:25 GMT 52.960007 19.494171 27,650 309 418 1216
2022-12-05 20:07:22 GMT 52.958710 19.496809 27,725 309 418 1152
2022-12-05 20:07:16 GMT 52.947372 19.519958 27,550 309 416 1216
2022-12-05 20:07:11 GMT 52.945358 19.524078 27,525 310 415 1280
2022-12-05 20:07:07 GMT 52.942230 19.530474 27,450 310 415 1280
2022-12-05 20:07:03 GMT 52.937481 19.540127 27,350 309 415 1216
2022-12-05 20:07:00 GMT 52.928925 19.557648 27,225 310 414 1152
2022-12-05 20:06:56 GMT 52.928925 19.557648 27,250 309 415 1152
2022-12-05 20:06:52 GMT 52.924118 19.567490 27,100 309 413 1344
2022-12-05 20:06:49 GMT 52.919559 19.576853 27,075 309 413 1344
2022-12-05 20:06:46 GMT 52.917137 19.581797 27,025 310 413 1344
2022-12-05 20:06:41 GMT 52.905350 19.605789 26,900 310 413 1152
2022-12-05 20:06:38 GMT 52.905350 19.605789 26,800 310 412 1024
2022-12-05 20:06:35 GMT 52.902969 19.610596 26,800 310 412 1024
2022-12-05 20:06:32 GMT 52.899822 19.617031 26,750 310 410 1024
2022-12-05 20:06:29 GMT 52.895027 19.626841 26,675 309 410 960
2022-12-05 20:06:26 GMT 52.893120 19.630686 26,675 310 409 960
2022-12-05 20:06:20 GMT 52.884796 19.647675 26,500 310 407 1088
2022-12-05 20:06:17 GMT 52.880630 19.656219 26,350 310 405 1024
2022-12-05 20:06:13 GMT 52.875660 19.666233 26,425 310 407 1088
2022-12-05 20:06:10 GMT 52.873196 19.671333 26,400 310 404 1152
2022-12-05 20:06:06 GMT 52.868683 19.680481 26,250 310 404 1216
2022-12-05 20:06:02 GMT 52.864517 19.688950 26,250 310 404 1216
2022-12-05 20:05:59 GMT 52.860439 19.697231 26,075 310 403 1088
2022-12-05 20:05:56 GMT 52.855957 19.706345 26,125 310 403 1088
2022-12-05 20:05:50 GMT 52.849411 19.719696 25,975 310 402 1152
2022-12-05 20:05:47 GMT 52.843414 19.731827 25,925 310 401 1216
2022-12-05 20:05:41 GMT 52.839352 19.740156 25,800 310 400 1152
2022-12-05 20:05:38 GMT 52.835358 19.748154 25,775 310 400 1152
2022-12-05 20:05:34 GMT 52.830551 19.757969 25,700 310 400 1216
2022-12-05 20:05:31 GMT 52.827438 19.764252 25,600 310 399 1280
2022-12-05 20:05:28 GMT 52.823475 19.772251 25,550 310 398 1280
2022-12-05 20:05:25 GMT 52.821148 19.777039 25,475 310 398 1216
2022-12-05 20:05:22 GMT 52.816494 19.786455 25,425 310 398 1216
2022-12-05 20:05:19 GMT 52.813702 19.792107 25,400 310 398 1216
2022-12-05 20:05:15 GMT 52.809265 19.801025 25,325 310 397 1216
2022-12-05 20:05:11 GMT 52.804733 19.810181 25,200 310 396 1088
2022-12-05 20:05:08 GMT 52.800934 19.817886 25,200 310 396 1088
2022-12-05 20:05:05 GMT 52.797226 19.825363 25,125 310 395 960
2022-12-05 20:05:00 GMT 52.791687 19.836578 25,025 310 393 1088
2022-12-05 20:04:57 GMT 52.787865 19.844292 24,850 310 393 1344
2022-12-05 20:04:54 GMT 52.785583 19.848843 24,950 310 393 1344
2022-12-05 20:04:50 GMT 52.780880 19.858416 24,825 310 393 1408
2022-12-05 20:04:47 GMT 52.776272 19.867676 24,775 310 393 1216
2022-12-05 20:04:44 GMT 52.773991 19.872307 24,725 310 392 1216
2022-12-05 20:04:40 GMT 52.765503 19.889450 24,575 310 391 1280
2022-12-05 20:04:34 GMT 52.762756 19.894943 24,400 310 390 1280
2022-12-05 20:04:31 GMT 52.757977 19.904636 24,400 310 390 1280
2022-12-05 20:04:28 GMT 52.755478 19.909744 24,325 310 390 1216
2022-12-05 20:04:25 GMT 52.751358 19.917984 24,325 310 389 1216
2022-12-05 20:04:21 GMT 52.746666 19.927473 24,225 310 388 1152
2022-12-05 20:04:18 GMT 52.743874 19.933123 24,200 310 388 1152
2022-12-05 20:04:14 GMT 52.739311 19.942305 24,125 310 387 1216
2022-12-05 20:04:11 GMT 52.735474 19.950027 24,025 310 386 1280
2022-12-05 20:04:08 GMT 52.732048 19.956821 24,000 310 385 1280
2022-12-05 20:04:04 GMT 52.727783 19.965439 23,875 310 385 1344
2022-12-05 20:03:58 GMT 52.720318 19.980442 23,750 310 385 1472
2022-12-05 20:03:54 GMT 52.716267 19.988525 23,675 310 384 1472
2022-12-05 20:03:51 GMT 52.712311 19.996531 21,325 310 382 1792
2022-12-05 20:03:48 GMT 52.709747 20.001678 23,525 310 383 1472
2022-12-05 20:03:43 GMT 52.704582 20.011990 23,425 310 382 1536
2022-12-05 20:03:40 GMT 52.696529 20.028233 23,275 310 382 1664
2022-12-05 20:03:37 GMT 52.696529 20.028233 23,200 310 382 1728
2022-12-05 20:03:34 GMT 52.693130 20.035019 23,125 310 382 1792
2022-12-05 20:03:27 GMT 52.686859 20.047607 22,925 310 382 1728
2022-12-05 20:03:23 GMT 52.681915 20.057526 22,850 310 382 1600
2022-12-05 20:03:19 GMT 52.676971 20.067291 22,700 310 382 1472
2022-12-05 20:03:16 GMT 52.673576 20.074141 22,625 310 382 1472
2022-12-05 20:03:13 GMT 52.670242 20.080872 22,500 310 382 1472
2022-12-05 20:03:10 GMT 52.667038 20.087204 22,475 310 382 1408
2022-12-05 20:03:07 GMT 52.663708 20.093916 22,450 310 381 1408
2022-12-05 20:03:03 GMT 52.659485 20.102386 22,350 310 380 1344
2022-12-05 20:02:57 GMT 52.652802 20.115662 22,225 310 379 1344
2022-12-05 20:02:54 GMT 52.648159 20.124990 22,125 310 379 1344
2022-12-05 20:02:50 GMT 52.644112 20.133074 22,000 310 377 1472
2022-12-05 20:02:47 GMT 52.641220 20.138855 21,950 310 377 1408
2022-12-05 20:02:44 GMT 52.635220 20.150808 21,850 310 376 1344
2022-12-05 20:02:37 GMT 52.629730 20.161743 21,750 310 375 1152
2022-12-05 20:02:33 GMT 52.621532 20.178118 21,675 310 373 1088
2022-12-05 20:02:29 GMT 52.621532 20.178118 21,575 310 372 1152
2022-12-05 20:02:26 GMT 52.618553 20.184082 21,575 310 371 1216
2022-12-05 20:02:22 GMT 52.613022 20.195084 21,475 310 370 1344
2022-12-05 20:02:17 GMT 52.608498 20.204170 21,350 310 369 1408
2022-12-05 20:02:14 GMT 52.605427 20.210215 21,275 310 367 1280
2022-12-05 20:02:11 GMT 52.601517 20.217983 21,150 310 367 1216
2022-12-05 20:02:08 GMT 52.597870 20.225220 21,150 310 367 1216
2022-12-05 20:02:04 GMT 52.593369 20.234226 21,075 310 365 1216
2022-12-05 20:02:00 GMT 52.589970 20.240976 21,025 310 364 1152
2022-12-05 20:01:57 GMT 52.583267 20.254288 20,925 310 362 1216
2022-12-05 20:01:54 GMT 52.583267 20.254288 20,900 310 362 1344
2022-12-05 20:01:51 GMT 52.581116 20.258636 20,850 310 361 1408
2022-12-05 20:01:48 GMT 52.577957 20.264910 20,775 310 361 1536
2022-12-05 20:01:45 GMT 52.574562 20.271660 20,500 310 359 1664
2022-12-05 20:01:42 GMT 52.570324 20.280134 20,575 310 360 1664
2022-12-05 20:01:37 GMT 52.563110 20.294416 20,400 310 359 1728
2022-12-05 20:01:34 GMT 52.563110 20.294416 20,350 310 359 1728
2022-12-05 20:01:31 GMT 52.559383 20.301870 20,300 310 359 1728
2022-12-05 20:01:27 GMT 52.554886 20.310745 20,175 310 357 1728
2022-12-05 20:01:24 GMT 52.548615 20.323181 20,025 310 354 1472
2022-12-05 20:01:21 GMT 52.548615 20.323181 20,000 310 357 1728
2022-12-05 20:01:16 GMT 52.542908 20.334517 19,825 310 357 1536
2022-12-05 20:01:13 GMT 52.540100 20.340042 19,775 310 356 1536
2022-12-05 20:01:10 GMT 52.537876 20.344404 19,725 310 355 1472
2022-12-05 20:01:07 GMT 52.534241 20.351639 19,600 310 354 1472
2022-12-05 20:01:04 GMT 52.531311 20.357437 19,500 310 353 1472
2022-12-05 20:01:01 GMT 52.527557 20.364914 19,500 310 353 1472
2022-12-05 20:00:58 GMT 52.524426 20.371084 19,425 310 353 1600
2022-12-05 20:00:54 GMT 52.520508 20.378876 19,125 310 350 1664
2022-12-05 20:00:51 GMT 52.516342 20.387039 19,200 310 351 1664
2022-12-05 20:00:45 GMT 52.510208 20.399246 18,975 310 349 1792
2022-12-05 20:00:42 GMT 52.508148 20.403290 18,975 310 349 1792
2022-12-05 20:00:38 GMT 52.503525 20.412369 18,825 310 349 1856
2022-12-05 20:00:34 GMT 52.499405 20.420532 18,725 310 348 1856
2022-12-05 20:00:30 GMT 52.495888 20.427429 18,600 310 348 1856
2022-12-05 20:00:26 GMT 52.491791 20.435513 18,475 310 348 1920
2022-12-05 20:00:22 GMT 52.487915 20.443268 18,325 310 347 1920
2022-12-05 20:00:19 GMT 52.485226 20.448540 18,125 310 345 2048
2022-12-05 20:00:16 GMT 52.481548 20.455757 18,125 310 347 1984
2022-12-05 20:00:13 GMT 52.475189 20.468292 18,000 310 347 2048
2022-12-05 20:00:10 GMT 52.475189 20.468292 17,950 310 346 2048
2022-12-05 20:00:07 GMT 52.471725 20.475142 17,800 310 345 2048
2022-12-05 20:00:04 GMT 52.468643 20.481186 17,750 310 345 2048
2022-12-05 20:00:00 GMT 52.464157 20.490036 17,600 310 345 2048
2022-12-05 19:59:55 GMT 52.459854 20.498447 17,425 310 345 2112
2022-12-05 19:59:52 GMT 52.455807 20.506531 17,300 310 345 2112
2022-12-05 19:59:49 GMT 52.454361 20.509338 17,250 310 345 2112
2022-12-05 19:59:44 GMT 52.448685 20.520554 17,075 310 344 2112
2022-12-05 19:59:40 GMT 52.440304 20.536980 16,775 310 344 2176
2022-12-05 19:59:37 GMT 52.440304 20.536980 16,775 310 344 2112
2022-12-05 19:59:34 GMT 52.438305 20.540981 16,675 310 343 2176
2022-12-05 19:59:31 GMT 52.434624 20.548201 16,575 310 343 2176
2022-12-05 19:59:28 GMT 52.433212 20.550995 16,525 310 343 2112
2022-12-05 19:59:25 GMT 52.429413 20.558401 16,300 310 343 2048
2022-12-05 19:59:21 GMT 52.426105 20.564915 16,300 310 343 1984
2022-12-05 19:59:18 GMT 52.422848 20.571272 15,875 310 342 1856
2022-12-05 19:59:15 GMT 52.419216 20.578413 16,050 310 340 1856
2022-12-05 19:59:12 GMT 52.416378 20.583984 16,000 310 340 1920
2022-12-05 19:59:09 GMT 52.412373 20.591909 15,875 310 340 2112
2022-12-05 19:59:05 GMT 52.409317 20.597839 15,550 310 340 2368
2022-12-05 19:59:02 GMT 52.406525 20.603333 15,625 310 339 2496
2022-12-05 19:58:59 GMT 52.403111 20.610039 15,425 310 340 2560
2022-12-05 19:58:56 GMT 52.400070 20.615921 15,300 310 340 2560
2022-12-05 19:58:53 GMT 52.397278 20.621414 15,200 310 340 2432
2022-12-05 19:58:50 GMT 52.394073 20.627747 15,200 310 340 2432
2022-12-05 19:58:47 GMT 52.391052 20.633657 14,950 310 340 2240
2022-12-05 19:58:42 GMT 52.385468 20.644566 14,750 310 338 2112
2022-12-05 19:58:39 GMT 52.382580 20.650215 14,700 310 338 2112
2022-12-05 19:58:36 GMT 52.379459 20.656338 14,600 310 338 2112
2022-12-05 19:58:33 GMT 52.375362 20.664343 14,475 310 337 2112
2022-12-05 19:58:30 GMT 52.373978 20.667038 14,425 310 337 2048
2022-12-05 19:58:27 GMT 52.371082 20.672737 14,325 310 337 2048
2022-12-05 19:58:24 GMT 52.368568 20.677605 14,225 310 336 2048
2022-12-05 19:58:21 GMT 52.365074 20.684431 13,925 310 333 2048
2022-12-05 19:58:18 GMT 52.361618 20.691223 14,000 310 334 2048
2022-12-05 19:58:14 GMT 52.358372 20.697615 13,825 310 332 2176
2022-12-05 19:58:11 GMT 52.355301 20.703583 13,775 310 332 2112
2022-12-05 19:58:08 GMT 52.352322 20.709307 13,500 310 331 2240
2022-12-05 19:58:03 GMT 52.347427 20.718918 13,450 310 330 2560
2022-12-05 19:58:00 GMT 52.345093 20.723495 13,375 310 330 2560
2022-12-05 19:57:57 GMT 52.341568 20.730362 13,225 310 330 2688
2022-12-05 19:57:54 GMT 52.337845 20.737558 13,050 310 330 2688
2022-12-05 19:57:51 GMT 52.335663 20.741882 12,950 310 330 2752
2022-12-05 19:57:48 GMT 52.332302 20.748386 12,750 310 330 2752
2022-12-05 19:57:45 GMT 52.329391 20.754166 12,650 310 331 2752
2022-12-05 19:57:42 GMT 52.326859 20.759060 12,550 310 331 2624
2022-12-05 19:57:38 GMT 52.322155 20.768162 12,350 310 331 2560
2022-12-05 19:57:34 GMT 52.317947 20.776367 12,150 310 331 2624
2022-12-05 19:57:30 GMT 52.312241 20.787466 11,900 310 331 2624
2022-12-05 19:57:27 GMT 52.312241 20.787466 11,775 310 331 2496
2022-12-05 19:57:24 GMT 52.309166 20.793509 11,725 310 331 2496
2022-12-05 19:57:21 GMT 52.305580 20.800415 11,600 310 331 2432
2022-12-05 19:57:17 GMT 52.302246 20.806961 11,425 310 330 2240
2022-12-05 19:57:13 GMT 52.298878 20.813442 11,350 310 330 2048
2022-12-05 19:57:10 GMT 52.295563 20.819931 11,250 311 329 1984
2022-12-05 19:57:07 GMT 52.292641 20.825605 11,150 311 327 1920
2022-12-05 19:57:04 GMT 52.289383 20.831909 11,050 311 326 1792
2022-12-05 19:57:00 GMT 52.285812 20.838852 10,925 311 325 1664
2022-12-05 19:56:54 GMT 52.279469 20.851109 10,775 311 321 1280
2022-12-05 19:56:50 GMT 52.276024 20.857779 10,700 311 318 1024
2022-12-05 19:56:47 GMT 52.272995 20.863665 10,650 311 313 704
2022-12-05 19:56:44 GMT 52.270203 20.869064 10,625 311 312 640
2022-12-05 19:56:40 GMT 52.266495 20.876236 10,600 310 306 640
2022-12-05 19:56:36 GMT 52.261963 20.885010 10,525 310 298 896
2022-12-05 19:56:33 GMT 52.260193 20.888462 10,500 310 296 1280
2022-12-05 19:56:30 GMT 52.257568 20.893631 10,425 311 293 1600
2022-12-05 19:56:26 GMT 52.254501 20.899582 10,225 310 289 2432
2022-12-05 19:56:23 GMT 52.251984 20.904388 10,225 311 290 2432
2022-12-05 19:56:19 GMT 52.248550 20.911102 9,725 311 286 2432
2022-12-05 19:56:16 GMT 52.245529 20.916901 9,900 311 287 2560
2022-12-05 19:56:13 GMT 52.242737 20.922318 9,500 311 286 2432
2022-12-05 19:56:10 GMT 52.239716 20.928192 9,625 311 286 2304
2022-12-05 19:56:06 GMT 52.236969 20.933533 9,500 311 284 2176
2022-12-05 19:56:03 GMT 52.233753 20.939707 9,375 311 282 2176
2022-12-05 19:55:59 GMT 52.231098 20.944885 9,250 310 280 2368
2022-12-05 19:55:55 GMT 52.228397 20.950144 9,125 311 279 2560
2022-12-05 19:55:52 GMT 52.225094 20.956499 8,950 311 278 2688
2022-12-05 19:55:49 GMT 52.223091 20.960344 8,550 311 276 3008
2022-12-05 19:55:46 GMT 52.220158 20.966072 8,675 311 276 2816
2022-12-05 19:55:42 GMT 52.217010 20.972137 8,375 311 276 3136
2022-12-05 19:55:39 GMT 52.214447 20.977097 8,325 311 276 3136
2022-12-05 19:55:36 GMT 52.211918 20.982002 8,175 310 276 3072
2022-12-05 19:55:33 GMT 52.210289 20.985222 8,075 310 276 3072
2022-12-05 19:55:29 GMT 52.206482 20.992508 7,825 310 276 3136
2022-12-05 19:55:26 GMT 52.203552 20.998230 7,625 310 276 3392
2022-12-05 19:55:23 GMT 52.201118 21.003035 7,450 310 277 3584
2022-12-05 19:55:19 GMT 52.198139 21.008841 7,025 311 279 3584
2022-12-05 19:55:15 GMT 52.195312 21.014252 6,975 311 279 3520
2022-12-05 19:55:12 GMT 52.192703 21.019363 6,850 310 280 3200
2022-12-05 19:55:09 GMT 52.189854 21.024929 6,700 311 281 2816
2022-12-05 19:55:04 GMT 52.185246 21.033796 6,450 310 278 2496
2022-12-05 19:54:58 GMT 52.181194 21.041721 6,250 310 277 2432
2022-12-05 19:54:54 GMT 52.177937 21.048079 6,075 310 275 2560
2022-12-05 19:54:49 GMT 52.173141 21.057732 5,825 309 272 2624
2022-12-05 19:54:45 GMT 52.170303 21.063459 5,625 308 271 2688
2022-12-05 19:54:42 GMT 52.167603 21.069187 5,500 308 269 2560
2022-12-05 19:54:38 GMT 52.165054 21.074600 5,375 308 268 2112
2022-12-05 19:54:35 GMT 52.162342 21.080017 5,275 312 266 1600
2022-12-05 19:54:31 GMT 52.159424 21.084900 5,200 319 266 1088
2022-12-05 19:54:28 GMT 52.156570 21.088728 5,150 324 262 704
2022-12-05 19:54:25 GMT 52.152740 21.092758 5,100 332 259 896
2022-12-05 19:54:22 GMT 52.149166 21.095476 5,050 339 255 1152
2022-12-05 19:54:18 GMT 52.145782 21.097336 5,000 346 252 1664
2022-12-05 19:54:14 GMT 52.141392 21.098850 4,875 353 251 2048
2022-12-05 19:54:11 GMT 52.138458 21.099319 4,775 359 251 2112
2022-12-05 19:54:07 GMT 52.129669 21.097870 4,625 9 249 2112
2022-12-05 19:54:04 GMT 52.129669 21.097870 4,525 14 248 2048
2022-12-05 19:54:01 GMT 52.126404 21.096184 4,425 22 246 2112
2022-12-05 19:53:58 GMT 52.123306 21.093903 4,325 28 244 2304
2022-12-05 19:53:53 GMT 52.119328 21.089748 4,150 37 242 2496
2022-12-05 19:53:50 GMT 52.116211 21.085281 4,000 45 241 2496
2022-12-05 19:53:47 GMT 52.114300 21.081587 3,650 78 230 2752
2022-12-05 19:53:44 GMT 52.112160 21.076172 3,725 62 236 2432
2022-12-05 19:53:38 GMT 52.109848 21.066666 3,425 76 231 2688
2022-12-05 19:53:34 GMT 52.109085 21.058123 3,275 87 228 3072
2022-12-05 19:53:31 GMT 52.109318 21.050119 3,075 97 226 3200
2022-12-05 19:53:28 GMT 52.109390 21.049194 2,950 97 227 3200
2022-12-05 19:53:23 GMT 52.110203 21.041409 2,725 101 226 2816
2022-12-05 19:53:17 GMT 52.111412 21.031521 2,475 104 222 2368
2022-12-05 19:53:13 GMT 52.112457 21.025238 2,325 108 220 2240
2022-12-05 19:53:06 GMT 52.115387 21.015244 2,100 135 205 832
2022-12-05 19:53:03 GMT 52.117584 21.010971 2,050 135 205 832
2022-12-05 19:52:57 GMT 52.121796 21.005625 1,950 149 192 1408
2022-12-05 19:52:52 GMT 52.125191 21.002485 1,875 151 186 1024
2022-12-05 19:52:47 GMT 52.129486 20.998688 1,800 151 174 704
2022-12-05 19:52:40 GMT 52.134201 20.994644 1,475 151 143 2688
2022-12-05 19:52:36 GMT 52.136536 20.992661 1,725 152 154 704
2022-12-05 19:52:32 GMT 52.139053 20.990524 1,675 152 145 832
2022-12-05 19:52:25 GMT 52.143677 20.986481 1,475 151 136 2240
2022-12-05 19:52:22 GMT 52.144882 20.985456 1,375 150 136 2560
2022-12-05 19:52:16 GMT 52.148300 20.982361 1,075 151 138 3008
2022-12-05 19:52:12 GMT 52.156570 20.975176 875 151 143 2688
2022-12-05 19:52:01 GMT 52.156570 20.975176 400 151 146 2816
2022-12-05 19:51:50 GMT 52.163319 20.969212 125 151 137 0
2022-12-05 19:51:19 GMT 52.174129 20.959814 0 151 17
2022-12-05 19:51:11 GMT 52.174305 20.959658 0 151 0
2022-12-05 19:51:01 GMT 52.174316 20.959658 0 151 0

Making use of Plane Finder data

You are free to use the raw flight data, aircraft information and images provided in this report for your own purposes provided the data is correctly attributed to Plane Finder. We ask that you please credit Plane Finder and link to planefinder.net in close proximity to the content.

Optionally one of the following logos (no smaller then 150x24px) can be used and must link to planefinder.net

Embedding the Plane Finder map

You are welcome to embed the Plane Finder playback map on your website to offer visitors a more interactive experience. We suggest using the following HTML code:

<iframe src="//planefinder.net/data/report/LO459-SP-LDF-7700-squawk-2022-12-05/map" width="800" height="600" seamless="seamless"></iframe>

Where our data comes from

Plane Finder has a global network of data feeds and antenna radars that receive data broadcast directly from aircraft. The primary technologies used are ADS-B and MLAT. We also show feeds from the FAA and a FLARM glider feed.

Click here to find out more about the Plane Finder network.

How we collect our data